sim
Sign-in with your pilot id or email,
or register
Callsign
Passwort

Schedule Details

Flight Number: OEO5280
Departure: Basel Mulhouse-Freiburg EuroAirport (LFSB) at 12:45
Arrival: Fuerteventura Airport (GCFV) at 17:10

Weather Information
Getting current METAR information for LFSB 160330Z 17008KT CAVOK 02/M00 Q1029 NOSIG
Getting current METAR information for GCFV 160330Z AUTO 28005KT 9999 NCD 14/11 Q1017

Schedule Frequency

Route Map